createdAt,value
2017-08-18T00:00:25.646Z,1.90
2017-08-18T00:02:53.049Z,1.80
2017-08-18T00:05:21.254Z,1.80
2017-08-18T00:07:48.663Z,1.63
2017-08-18T00:10:16.074Z,2.10
2017-08-18T00:12:43.496Z,2.33
2017-08-18T00:15:11.910Z,2.50
2017-08-18T00:17:39.327Z,1.80
2017-08-18T00:20:06.742Z,1.70
2017-08-18T00:22:34.158Z,2.10
2017-08-18T00:25:01.575Z,2.13
2017-08-18T00:27:28.995Z,1.70
2017-08-18T00:29:57.317Z,1.70
2017-08-18T00:32:24.742Z,1.90
2017-08-18T00:34:52.159Z,1.67
2017-08-18T00:37:19.579Z,1.90
2017-08-18T00:39:47.001Z,2.13
2017-08-18T00:42:14.418Z,1.60
2017-08-18T00:44:42.342Z,1.90
2017-08-18T00:47:11.054Z,1.57
2017-08-18T00:49:38.478Z,1.90
2017-08-18T00:52:05.914Z,1.70
2017-08-18T00:54:33.299Z,1.70
2017-08-18T00:57:01.370Z,1.97
2017-08-18T00:59:29.678Z,2.10
2017-08-18T01:01:57.090Z,1.70
2017-08-18T01:04:24.506Z,1.80
2017-08-18T01:06:52.511Z,1.70
2017-08-18T01:09:19.946Z,2.17
2017-08-18T01:11:47.354Z,2.00
2017-08-18T01:14:14.774Z,2.00
2017-08-18T01:16:42.179Z,2.20
2017-08-18T01:19:10.033Z,2.30
2017-08-18T01:21:37.438Z,1.87
2017-08-18T01:24:04.854Z,2.03
2017-08-18T01:26:32.266Z,1.60
2017-08-18T01:28:59.691Z,2.10
2017-08-18T01:31:27.097Z,1.97
2017-08-18T01:33:54.533Z,1.97
2017-08-18T01:36:21.942Z,1.80
2017-08-18T01:38:51.261Z,1.93
2017-08-18T01:41:18.674Z,1.90
2017-08-18T01:43:46.081Z,2.20
2017-08-18T01:46:13.502Z,2.07
2017-08-18T01:48:40.914Z,1.73
2017-08-18T01:51:08.330Z,2.30
2017-08-18T01:53:36.508Z,2.10
2017-08-18T01:56:04.478Z,1.87
2017-08-18T01:58:31.894Z,1.80
2017-08-18T02:00:59.309Z,2.03
2017-08-18T02:03:26.718Z,2.20
2017-08-18T02:05:54.137Z,2.03
2017-08-18T02:08:21.556Z,1.63
2017-08-18T02:10:49.734Z,2.07
2017-08-18T02:13:17.146Z,1.97
2017-08-18T02:15:44.570Z,1.80
2017-08-18T02:18:11.980Z,1.70
2017-08-18T02:20:40.034Z,2.07
2017-08-18T02:23:07.450Z,1.80
2017-08-18T02:25:34.856Z,2.07
2017-08-18T02:28:02.277Z,2.03
2017-08-18T02:30:29.694Z,2.20
2017-08-18T02:32:58.426Z,1.73
2017-08-18T02:35:25.836Z,2.23
2017-08-18T02:37:54.026Z,1.73
2017-08-18T02:40:21.433Z,2.07
2017-08-18T02:42:49.164Z,2.23
2017-08-18T02:45:16.578Z,2.00
2017-08-18T02:47:44.778Z,1.90
2017-08-18T02:50:12.170Z,2.23
2017-08-18T02:52:39.590Z,2.10
2017-08-18T02:55:07.002Z,2.03
2017-08-18T02:57:34.421Z,2.40
2017-08-18T03:00:01.834Z,2.40
2017-08-18T03:02:30.034Z,1.90
2017-08-18T03:04:57.439Z,1.80
2017-08-18T03:07:25.609Z,1.80
2017-08-18T03:09:54.214Z,2.30
2017-08-18T03:12:23.489Z,2.43
2017-08-18T03:14:50.910Z,2.30
2017-08-18T03:17:18.322Z,2.17
2017-08-18T03:19:45.743Z,2.30
2017-08-18T03:22:13.153Z,1.83
2017-08-18T03:24:40.573Z,2.47
2017-08-18T03:27:07.980Z,2.20
2017-08-18T03:29:35.399Z,2.47
2017-08-18T03:32:02.810Z,2.97
2017-08-18T03:34:30.219Z,1.90
2017-08-18T03:36:57.636Z,2.27
2017-08-18T03:39:25.048Z,1.97
2017-08-18T03:41:52.450Z,2.27
2017-08-18T03:44:19.866Z,1.77
2017-08-18T03:46:47.287Z,2.00
2017-08-18T03:49:14.701Z,2.50
2017-08-18T03:51:42.110Z,1.90
2017-08-18T03:54:10.293Z,1.93
2017-08-18T03:56:38.611Z,1.60
2017-08-18T03:59:06.027Z,1.67
2017-08-18T04:01:34.889Z,1.70
2017-08-18T04:04:02.294Z,1.70
2017-08-18T04:06:30.018Z,1.57
2017-08-18T04:08:58.194Z,1.37
2017-08-18T04:11:27.302Z,1.83
2017-08-18T04:13:54.712Z,2.10
2017-08-18T04:16:22.130Z,2.10
2017-08-18T04:18:49.538Z,2.47
2017-08-18T04:21:17.019Z,2.17
2017-08-18T04:23:45.189Z,2.20
2017-08-18T04:26:13.573Z,2.17
2017-08-18T04:28:42.478Z,1.70
2017-08-18T04:31:09.893Z,2.10
2017-08-18T04:33:37.309Z,1.63
2017-08-18T04:36:06.614Z,1.70
2017-08-18T04:38:34.035Z,1.90
2017-08-18T04:41:02.210Z,1.90
2017-08-18T04:43:31.294Z,1.80
2017-08-18T04:46:00.093Z,1.93
2017-08-18T04:48:27.595Z,1.77
2017-08-18T04:50:54.992Z,2.03
2017-08-18T04:53:22.406Z,2.03
2017-08-18T04:55:50.273Z,2.00
2017-08-18T04:58:18.070Z,1.50
2017-08-18T05:00:45.488Z,2.10
2017-08-18T05:03:12.903Z,1.80
2017-08-18T05:05:41.079Z,2.30
2017-08-18T05:08:09.259Z,1.70
2017-08-18T05:10:37.445Z,1.77
2017-08-18T05:13:04.858Z,1.53
2017-08-18T05:15:32.268Z,2.10
2017-08-18T05:17:59.685Z,1.60
2017-08-18T05:20:27.098Z,1.70
2017-08-18T05:22:54.511Z,1.53
2017-08-18T05:25:22.693Z,1.70
2017-08-18T05:27:50.102Z,1.73
2017-08-18T05:30:17.509Z,1.70
2017-08-18T05:32:44.921Z,1.57
2017-08-18T05:35:12.338Z,1.90
2017-08-18T05:37:39.764Z,1.60
2017-08-18T05:40:08.466Z,1.40
2017-08-18T05:42:35.869Z,2.50
2017-08-18T05:45:03.289Z,1.50
2017-08-18T05:47:31.217Z,1.77
2017-08-18T05:49:58.634Z,1.50
2017-08-18T05:52:26.975Z,1.43
2017-08-18T05:54:54.383Z,1.73
2017-08-18T05:57:21.795Z,1.37
2017-08-18T05:59:49.214Z,1.63
2017-08-18T06:02:16.618Z,1.47
2017-08-18T06:04:44.042Z,1.33
2017-08-18T06:07:12.217Z,1.23
2017-08-18T06:09:41.206Z,1.20
2017-08-18T06:12:10.051Z,1.60
2017-08-18T06:14:37.473Z,1.30
2017-08-18T06:17:04.882Z,1.13
2017-08-18T06:19:32.304Z,1.40
2017-08-18T06:21:59.715Z,1.07
2017-08-18T06:24:27.119Z,1.57
2017-08-18T06:26:54.530Z,1.00
2017-08-18T06:29:23.238Z,1.23
2017-08-18T06:31:50.646Z,1.50
2017-08-18T06:34:18.068Z,1.10
2017-08-18T06:36:46.261Z,1.40
2017-08-18T06:39:13.734Z,1.40
2017-08-18T06:41:41.125Z,1.53
2017-08-18T06:44:08.537Z,1.50
2017-08-18T06:46:35.958Z,1.20
2017-08-18T06:49:03.358Z,1.40
2017-08-18T06:51:30.792Z,1.77
2017-08-18T06:53:58.190Z,1.63
2017-08-18T06:56:26.370Z,1.70
2017-08-18T06:58:54.557Z,1.83
2017-08-18T07:01:22.638Z,1.50
2017-08-18T07:03:50.414Z,1.33
2017-08-18T07:06:17.830Z,1.90
2017-08-18T07:08:46.022Z,1.30
2017-08-18T07:11:14.738Z,1.70
2017-08-18T07:13:43.471Z,1.90
2017-08-18T07:16:11.714Z,1.97
2017-08-18T07:18:39.121Z,1.47
2017-08-18T07:21:06.530Z,1.30
2017-08-18T07:23:34.346Z,1.27
2017-08-18T07:26:01.759Z,1.70
2017-08-18T07:28:29.177Z,1.50
2017-08-18T07:30:57.350Z,2.37
2017-08-18T07:33:25.539Z,1.63
2017-08-18T07:35:52.945Z,1.40
2017-08-18T07:38:21.122Z,1.50
2017-08-18T07:40:49.306Z,1.20
2017-08-18T07:43:16.727Z,1.40
2017-08-18T07:45:44.146Z,1.20
2017-08-18T07:48:11.557Z,1.10
2017-08-18T07:50:40.407Z,1.20
2017-08-18T07:53:07.822Z,1.27
2017-08-18T07:55:35.235Z,1.93
2017-08-18T07:58:02.670Z,1.30
2017-08-18T08:00:30.073Z,1.17
2017-08-18T08:02:58.254Z,1.50
2017-08-18T08:05:26.438Z,1.53
2017-08-18T08:07:55.006Z,1.77
2017-08-18T08:10:23.194Z,1.30
2017-08-18T08:12:51.182Z,1.60
2017-08-18T08:15:18.610Z,1.80
2017-08-18T08:17:46.793Z,1.57
2017-08-18T08:20:14.213Z,1.60
2017-08-18T08:22:41.643Z,1.70
2017-08-18T08:25:09.050Z,1.87
2017-08-18T08:27:37.227Z,2.03
2017-08-18T08:30:05.419Z,2.10
2017-08-18T08:32:32.830Z,1.93
2017-08-18T08:35:00.255Z,1.80
2017-08-18T08:37:27.662Z,1.80
2017-08-18T08:39:55.843Z,1.70
2017-08-18T08:42:24.025Z,1.73
2017-08-18T08:44:52.217Z,1.87
2017-08-18T08:47:19.623Z,1.67
2017-08-18T08:49:47.046Z,2.00
2017-08-18T08:52:14.454Z,1.50
2017-08-18T08:54:42.653Z,1.60
2017-08-18T08:57:10.065Z,1.63
2017-08-18T08:59:37.490Z,2.03
2017-08-18T09:02:04.905Z,2.00
2017-08-18T09:04:32.320Z,1.90
2017-08-18T09:06:59.741Z,2.00
2017-08-18T09:09:27.162Z,1.80
2017-08-18T09:11:54.571Z,1.93
2017-08-18T09:14:21.981Z,2.23
2017-08-18T09:16:49.926Z,2.30
2017-08-18T09:19:17.345Z,2.43
2017-08-18T09:21:44.753Z,2.07
2017-08-18T09:24:12.935Z,2.40
2017-08-18T09:26:41.126Z,1.70
2017-08-18T09:29:08.539Z,1.70
2017-08-18T09:31:35.977Z,1.87
2017-08-18T09:34:03.382Z,2.17
2017-08-18T09:36:31.557Z,1.87
2017-08-18T09:38:59.747Z,1.50
2017-08-18T09:41:28.061Z,1.57
2017-08-18T09:43:56.254Z,1.87
2017-08-18T09:46:24.312Z,1.70
2017-08-18T09:49:03.558Z,2.07
2017-08-18T09:51:55.471Z,2.40
2017-08-18T09:54:46.291Z,1.77
2017-08-18T09:57:25.671Z,1.70
2017-08-18T09:59:54.001Z,2.10
2017-08-18T10:02:21.414Z,2.10
2017-08-18T10:04:48.829Z,1.43
2017-08-18T10:07:16.242Z,2.77
2017-08-18T10:09:43.669Z,1.80
2017-08-18T10:12:11.074Z,1.80
2017-08-18T10:14:38.495Z,2.20
2017-08-18T10:17:06.581Z,1.90
2017-08-18T10:19:33.993Z,2.00
2017-08-18T10:22:02.169Z,1.90
2017-08-18T10:24:30.353Z,2.30
2017-08-18T10:26:57.774Z,10.43
2017-08-18T10:29:25.200Z,8.37
2017-08-18T10:31:52.610Z,3.10
2017-08-18T10:34:20.800Z,1.80
2017-08-18T10:36:48.901Z,2.10
2017-08-18T10:39:16.319Z,2.00
2017-08-18T10:41:43.731Z,2.00
2017-08-18T10:44:11.146Z,1.70
2017-08-18T10:46:38.563Z,3.80
2017-08-18T10:49:05.970Z,2.10
2017-08-18T10:51:34.174Z,1.93
2017-08-18T10:54:01.586Z,1.80
2017-08-18T10:56:30.566Z,1.80
2017-08-18T10:58:57.978Z,2.23
2017-08-18T11:01:26.170Z,1.67
2017-08-18T11:03:53.571Z,1.60
2017-08-18T11:06:20.989Z,1.60
2017-08-18T11:08:49.174Z,2.40
2017-08-18T11:11:17.353Z,2.30
2017-08-18T11:13:44.766Z,1.40
2017-08-18T11:16:12.757Z,1.50
2017-08-18T11:18:40.174Z,2.90
2017-08-18T11:21:07.592Z,2.50
2017-08-18T11:23:36.413Z,1.90
2017-08-18T11:26:03.826Z,2.53
2017-08-18T11:28:32.010Z,2.03
2017-08-18T11:31:00.190Z,1.80
2017-08-18T11:33:27.608Z,2.00
2017-08-18T11:35:55.138Z,2.27
2017-08-18T11:38:22.541Z,2.13
2017-08-18T11:40:50.717Z,2.27
2017-08-18T11:43:18.894Z,2.13
2017-08-18T11:45:47.080Z,2.10
2017-08-18T11:48:14.498Z,2.00
2017-08-18T11:50:41.901Z,1.90
2017-08-18T11:53:09.315Z,2.90
2017-08-18T11:55:37.250Z,1.70
2017-08-18T11:58:04.678Z,2.30
2017-08-18T12:00:32.083Z,1.83
2017-08-18T12:02:59.502Z,1.73
2017-08-18T12:05:26.915Z,1.60
2017-08-18T12:07:54.340Z,1.60
2017-08-18T12:10:21.739Z,1.70
2017-08-18T12:12:49.922Z,1.70
2017-08-18T12:15:18.107Z,1.60
2017-08-18T12:17:45.516Z,1.77
2017-08-18T12:20:12.934Z,1.43
2017-08-18T12:22:40.338Z,1.50
2017-08-18T12:25:08.523Z,1.33
2017-08-18T12:27:35.925Z,1.50
2017-08-18T12:30:03.344Z,1.77
2017-08-18T12:32:30.750Z,1.30
2017-08-18T12:34:58.165Z,1.20
2017-08-18T12:37:25.578Z,1.60
2017-08-18T12:39:53.474Z,2.53
2017-08-18T12:42:21.660Z,1.30
2017-08-18T12:44:49.079Z,1.87
2017-08-18T12:47:16.486Z,1.73
2017-08-18T12:49:43.894Z,1.13
2017-08-18T12:52:11.319Z,1.50
2017-08-18T12:54:39.413Z,1.37
2017-08-18T12:57:06.830Z,1.30
2017-08-18T12:59:34.247Z,1.40
2017-08-18T13:02:01.670Z,1.60
2017-08-18T13:04:29.097Z,1.43
2017-08-18T13:06:57.130Z,1.60
2017-08-18T13:09:26.094Z,1.43
2017-08-18T13:11:54.379Z,1.30
2017-08-18T13:14:21.786Z,1.20
2017-08-18T13:16:49.205Z,1.43
2017-08-18T13:19:16.614Z,1.07
2017-08-18T13:21:44.049Z,1.37
2017-08-18T13:24:11.459Z,1.30
2017-08-18T13:26:39.247Z,1.40
2017-08-18T13:29:07.437Z,1.73
2017-08-18T13:31:35.606Z,1.20
2017-08-18T13:34:03.026Z,1.70
2017-08-18T13:36:30.438Z,1.10
2017-08-18T13:38:58.996Z,1.43
2017-08-18T13:41:26.406Z,1.50
2017-08-18T13:43:54.385Z,1.20
2017-08-18T13:46:21.802Z,1.20
2017-08-18T13:48:49.222Z,1.43
2017-08-18T13:51:16.635Z,1.40
2017-08-18T13:53:44.045Z,1.13
2017-08-18T13:56:12.938Z,1.83
2017-08-18T13:58:41.126Z,1.47
2017-08-18T14:01:08.534Z,1.70
2017-08-18T14:03:35.943Z,1.60
2017-08-18T14:06:03.349Z,1.20
2017-08-18T14:08:31.086Z,1.50
2017-08-18T14:10:58.509Z,1.20
2017-08-18T14:13:25.921Z,1.40
2017-08-18T14:15:53.337Z,1.70
2017-08-18T14:18:20.757Z,2.30
2017-08-18T14:20:48.170Z,2.10
2017-08-18T14:23:15.583Z,2.13
2017-08-18T14:25:49.542Z,1.73
2017-08-18T14:28:16.968Z,2.10
2017-08-18T14:30:44.386Z,2.40
2017-08-18T14:33:11.785Z,3.00
2017-08-18T14:35:39.224Z,2.27
2017-08-18T14:38:07.652Z,1.20
2017-08-18T14:40:35.511Z,1.07
2017-08-18T14:43:02.931Z,1.50
2017-08-18T14:45:31.253Z,0.70
2017-08-18T14:47:58.654Z,0.60
2017-08-18T14:50:26.070Z,0.70
2017-08-18T14:52:53.490Z,0.53
2017-08-18T14:55:20.901Z,0.50
2017-08-18T14:57:48.314Z,0.37
2017-08-18T15:00:15.730Z,0.40
2017-08-18T15:02:44.615Z,0.50
2017-08-18T15:05:12.789Z,0.47
2017-08-18T15:07:40.978Z,0.70
2017-08-18T15:10:09.962Z,0.67
2017-08-18T15:12:38.146Z,0.60
2017-08-18T15:15:05.549Z,0.67
2017-08-18T15:17:32.963Z,0.80
2017-08-18T15:20:01.067Z,1.10
2017-08-18T15:22:28.518Z,0.70
2017-08-18T15:24:55.925Z,0.87
2017-08-18T15:27:24.628Z,1.20
2017-08-18T15:29:52.049Z,0.70
2017-08-18T15:32:19.465Z,0.80
2017-08-18T15:34:47.685Z,1.03
2017-08-18T15:37:15.399Z,0.90
2017-08-18T15:39:42.810Z,0.77
2017-08-18T15:42:12.490Z,0.90
2017-08-18T15:44:39.906Z,0.80
2017-08-18T15:47:07.314Z,0.90
2017-08-18T15:49:34.736Z,1.10
2017-08-18T15:52:02.152Z,1.13
2017-08-18T15:54:29.577Z,0.90
2017-08-18T15:56:56.982Z,0.83
2017-08-18T15:59:24.401Z,0.90
2017-08-18T16:01:52.710Z,1.00
2017-08-18T16:04:20.130Z,1.20
2017-08-18T16:06:47.550Z,1.10
2017-08-18T16:09:14.978Z,1.10
2017-08-18T16:11:43.067Z,1.00
2017-08-18T16:14:10.478Z,1.10
2017-08-18T16:16:37.893Z,0.80
2017-08-18T16:19:05.302Z,0.80
2017-08-18T16:21:33.390Z,0.80
2017-08-18T16:24:01.702Z,0.97
2017-08-18T16:26:29.125Z,0.67
2017-08-18T16:28:56.530Z,0.50
2017-08-18T16:31:23.950Z,0.70
2017-08-18T16:33:51.366Z,0.50
2017-08-18T16:36:18.786Z,0.50
2017-08-18T16:38:46.973Z,0.63
2017-08-18T16:41:14.398Z,0.70
2017-08-18T16:43:41.803Z,0.87
2017-08-18T16:46:09.245Z,0.50
2017-08-18T16:48:36.658Z,0.60
2017-08-18T16:51:04.593Z,0.57
2017-08-18T16:53:32.002Z,0.70
2017-08-18T16:56:01.939Z,0.40
2017-08-18T16:58:29.363Z,0.83
2017-08-18T17:00:56.763Z,0.60
2017-08-18T17:03:24.409Z,0.57
2017-08-18T17:05:51.824Z,0.60
2017-08-18T17:08:19.229Z,0.77
2017-08-18T17:10:46.645Z,0.50
2017-08-18T17:13:14.062Z,0.60
2017-08-18T17:15:41.478Z,0.73
2017-08-18T17:18:08.903Z,0.63
2017-08-18T17:20:36.314Z,0.50
2017-08-18T17:23:03.743Z,0.53
2017-08-18T17:25:31.154Z,0.73
2017-08-18T17:27:59.344Z,0.60
2017-08-18T17:30:26.758Z,0.70
2017-08-18T17:32:54.179Z,0.60
2017-08-18T17:35:21.587Z,0.70
2017-08-18T17:37:48.998Z,0.83
2017-08-18T17:40:16.414Z,0.70
2017-08-18T17:42:43.828Z,0.80
2017-08-18T17:45:11.254Z,0.60
2017-08-18T17:47:38.666Z,0.50
2017-08-18T17:50:06.082Z,0.80
2017-08-18T17:52:33.509Z,0.77
2017-08-18T17:55:00.919Z,1.20
2017-08-18T17:57:28.641Z,0.80
2017-08-18T17:59:56.062Z,0.83
2017-08-18T18:02:24.242Z,0.57
2017-08-18T18:04:52.162Z,0.87
2017-08-18T18:07:20.094Z,0.80
2017-08-18T18:09:47.514Z,0.77
2017-08-18T18:12:15.690Z,0.70
2017-08-18T18:14:43.105Z,0.80
2017-08-18T18:17:10.532Z,0.90
2017-08-18T18:19:37.938Z,0.90
2017-08-18T18:22:05.361Z,0.90
2017-08-18T18:24:32.765Z,0.60
2017-08-18T18:27:00.187Z,0.80
2017-08-18T18:29:27.590Z,0.77
2017-08-18T18:31:55.015Z,1.20
2017-08-18T18:34:22.426Z,1.00
2017-08-18T18:36:49.842Z,0.50
2017-08-18T18:39:17.259Z,1.03
2017-08-18T18:41:44.674Z,1.00
2017-08-18T18:44:12.842Z,1.03
2017-08-18T18:46:41.038Z,1.10
2017-08-18T18:49:08.443Z,1.27
2017-08-18T18:51:35.851Z,1.00
2017-08-18T18:54:03.819Z,1.13
2017-08-18T18:56:31.228Z,1.20
2017-08-18T18:58:58.653Z,1.27
2017-08-18T19:01:26.062Z,0.80
2017-08-18T19:03:53.478Z,1.07
2017-08-18T19:06:20.887Z,1.47
2017-08-18T19:08:48.303Z,1.23
2017-08-18T19:11:15.714Z,1.10
2017-08-18T19:13:43.960Z,1.60
2017-08-18T19:16:11.374Z,1.20
2017-08-18T19:18:38.796Z,1.20
2017-08-18T19:21:06.205Z,1.20
2017-08-18T19:23:33.638Z,1.20
2017-08-18T19:26:01.054Z,1.00
2017-08-18T19:28:29.250Z,1.57
2017-08-18T19:30:56.926Z,1.23
2017-08-18T19:33:24.334Z,1.60
2017-08-18T19:35:52.518Z,1.50
2017-08-18T19:38:20.570Z,1.33
2017-08-18T19:40:47.995Z,1.37
2017-08-18T19:43:15.402Z,1.37
2017-08-18T19:45:42.818Z,1.23
2017-08-18T19:48:10.234Z,1.60
2017-08-18T19:50:37.658Z,1.50
2017-08-18T19:53:05.070Z,1.47
2017-08-18T19:55:32.487Z,1.63
2017-08-18T19:57:59.902Z,1.20
2017-08-18T20:00:28.336Z,1.73
2017-08-18T20:02:55.737Z,1.50
2017-08-18T20:05:23.142Z,1.87
2017-08-18T20:07:50.563Z,1.60
2017-08-18T20:10:17.971Z,1.20
2017-08-18T20:12:45.393Z,1.87
2017-08-18T20:15:13.574Z,1.40
2017-08-18T20:17:40.990Z,1.73
2017-08-18T20:20:08.399Z,1.30
2017-08-18T20:22:35.812Z,1.63
2017-08-18T20:25:03.221Z,1.70
2017-08-18T20:27:30.642Z,1.20
2017-08-18T20:29:58.145Z,1.70
2017-08-18T20:32:25.545Z,1.40
2017-08-18T20:34:53.723Z,1.53
2017-08-18T20:37:21.846Z,1.53
2017-08-18T20:39:49.253Z,1.60
2017-08-18T20:42:16.960Z,1.67
2017-08-18T20:44:44.379Z,2.73
2017-08-18T20:47:12.550Z,1.67
2017-08-18T20:49:40.729Z,1.73
2017-08-18T20:52:08.150Z,1.70
2017-08-18T20:54:35.782Z,1.73
2017-08-18T20:57:03.173Z,1.90
2017-08-18T20:59:30.600Z,1.50
2017-08-18T21:01:58.010Z,1.60
2017-08-18T21:04:26.227Z,2.07
2017-08-18T21:06:53.642Z,2.20
2017-08-18T21:09:21.834Z,1.43
2017-08-18T21:11:49.320Z,1.57
2017-08-18T21:14:16.727Z,2.00
2017-08-18T21:16:44.146Z,2.03
2017-08-18T21:19:11.551Z,2.27
2017-08-18T21:21:38.962Z,1.93
2017-08-18T21:24:06.379Z,1.73
2017-08-18T21:26:33.803Z,2.30
2017-08-18T21:29:01.362Z,2.27
2017-08-18T21:31:28.778Z,2.03
2017-08-18T21:33:56.186Z,1.93
2017-08-18T21:36:24.258Z,2.30
2017-08-18T21:38:52.444Z,2.30
2017-08-18T21:41:19.862Z,2.20
2017-08-18T21:43:47.684Z,2.47
2017-08-18T21:46:15.100Z,2.13
2017-08-18T21:48:42.511Z,1.90
2017-08-18T21:51:09.926Z,2.17
2017-08-18T21:53:37.344Z,2.10
2017-08-18T21:56:04.802Z,2.27
2017-08-18T21:58:32.228Z,1.80
2017-08-18T22:00:59.657Z,2.20
2017-08-18T22:03:27.069Z,1.90
2017-08-18T22:05:54.471Z,2.30
2017-08-18T22:08:22.406Z,1.90
2017-08-18T22:10:49.817Z,1.90
2017-08-18T22:13:18.176Z,1.77
2017-08-18T22:15:45.577Z,1.70
2017-08-18T22:18:12.991Z,2.10
2017-08-18T22:20:40.402Z,2.50
2017-08-18T22:23:07.822Z,1.90
2017-08-18T22:25:35.238Z,1.80
2017-08-18T22:28:04.203Z,1.80
2017-08-18T22:30:31.620Z,1.67
2017-08-18T22:32:59.038Z,2.73
2017-08-18T22:35:27.222Z,1.67
2017-08-18T22:37:54.661Z,2.00
2017-08-18T22:40:22.082Z,2.57
2017-08-18T22:42:49.504Z,1.97
2017-08-18T22:45:16.915Z,2.10
2017-08-18T22:47:44.335Z,2.30
2017-08-18T22:50:11.894Z,1.90
2017-08-18T22:52:39.286Z,1.90
2017-08-18T22:55:07.862Z,1.83
2017-08-18T22:57:35.274Z,2.40
2017-08-18T23:00:02.690Z,2.03
2017-08-18T23:02:30.867Z,2.13
2017-08-18T23:04:58.288Z,1.93
2017-08-18T23:07:25.703Z,1.90
2017-08-18T23:09:53.118Z,1.60
2017-08-18T23:12:21.043Z,1.33
2017-08-18T23:14:48.453Z,2.20
2017-08-18T23:17:16.627Z,1.43
2017-08-18T23:19:44.836Z,1.90
2017-08-18T23:22:12.247Z,1.90
2017-08-18T23:24:39.666Z,2.03
2017-08-18T23:27:09.009Z,1.43
2017-08-18T23:29:36.426Z,1.73
2017-08-18T23:32:04.757Z,1.30
2017-08-18T23:34:32.169Z,1.83
2017-08-18T23:36:59.587Z,1.63
2017-08-18T23:39:26.998Z,1.60
2017-08-18T23:41:54.423Z,1.57
2017-08-18T23:44:21.838Z,1.53
2017-08-18T23:46:49.257Z,1.43
2017-08-18T23:49:16.667Z,1.40
2017-08-18T23:51:44.105Z,1.60
2017-08-18T23:54:11.919Z,1.70
2017-08-18T23:56:39.317Z,1.27
2017-08-18T23:59:06.738Z,1.40
